createdAt,value
2023-01-26T00:13:40.125Z,24.37
2023-01-26T00:28:42.655Z,23.73
2023-01-26T00:43:45.049Z,28.93
2023-01-26T00:58:48.758Z,26.90
2023-01-26T01:13:51.198Z,25.83
2023-01-26T01:28:55.982Z,26.07
2023-01-26T01:44:17.628Z,25.83
2023-01-26T01:59:22.326Z,23.07
2023-01-26T02:14:25.629Z,23.13
2023-01-26T02:29:27.994Z,24.23
2023-01-26T02:44:32.123Z,24.47
2023-01-26T02:59:34.699Z,26.80
2023-01-26T03:14:37.186Z,25.33
2023-01-26T03:29:40.547Z,24.83
2023-01-26T03:45:01.607Z,24.20
2023-01-26T04:00:06.138Z,23.57
2023-01-26T04:15:33.198Z,23.13
2023-01-26T04:30:37.262Z,25.83
2023-01-26T04:45:39.777Z,25.10
2023-01-26T05:00:43.293Z,24.47
2023-01-26T05:15:47.096Z,26.33
2023-01-26T05:31:10.102Z,26.07
2023-01-26T05:46:13.082Z,26.60
2023-01-26T06:01:18.786Z,29.93
2023-01-26T06:16:27.429Z,30.27
2023-01-26T06:31:32.747Z,25.43
2023-01-26T06:46:37.143Z,26.13
2023-01-26T07:01:45.197Z,24.83
2023-01-26T07:16:50.596Z,26.80
2023-01-26T07:31:53.229Z,26.03
2023-01-26T07:46:55.747Z,24.87
2023-01-26T08:01:58.906Z,25.27
2023-01-26T08:17:01.686Z,22.63
2023-01-26T08:32:04.198Z,27.07
2023-01-26T08:47:06.559Z,26.80
2023-01-26T09:02:10.457Z,28.77
2023-01-26T09:17:12.938Z,29.73
2023-01-26T09:32:16.018Z,28.10
2023-01-26T09:47:29.033Z,27.03
2023-01-26T10:02:53.689Z,26.63
2023-01-26T10:17:56.912Z,28.70
2023-01-26T10:32:59.394Z,30.00
2023-01-26T10:48:26.790Z,29.77
2023-01-26T11:03:29.643Z,28.20
2023-01-26T11:18:51.115Z,28.03
2023-01-26T11:33:53.333Z,26.93
2023-01-26T11:48:58.511Z,23.47
2023-01-26T12:04:00.901Z,19.60
2023-01-26T12:19:15.451Z,16.90
2023-01-26T12:34:28.280Z,13.97
2023-01-26T12:49:58.993Z,12.23
2023-01-26T13:05:03.574Z,15.17
2023-01-26T13:20:35.036Z,13.07
2023-01-26T13:35:41.139Z,11.83
2023-01-26T13:50:44.331Z,7.77
2023-01-26T14:05:53.887Z,6.70
2023-01-26T14:21:04.052Z,8.27
2023-01-26T14:36:07.192Z,11.10
2023-01-26T14:51:20.345Z,12.63
2023-01-26T15:06:28.347Z,26.37
2023-01-26T15:21:39.534Z,15.50
2023-01-26T15:36:51.750Z,31.00
2023-01-26T15:51:54.276Z,19.50
2023-01-26T16:06:56.680Z,21.63
2023-01-26T16:21:59.180Z,19.73
2023-01-26T16:37:01.485Z,20.50
2023-01-26T16:52:03.983Z,15.80
2023-01-26T17:07:06.285Z,21.60
2023-01-26T17:22:08.778Z,24.40
2023-01-26T17:37:11.195Z,22.90
2023-01-26T17:52:14.327Z,25.00
2023-01-26T18:07:16.715Z,22.80
2023-01-26T18:22:19.654Z,22.07
2023-01-26T18:37:22.096Z,21.87
2023-01-26T18:52:25.752Z,27.10
2023-01-26T19:07:28.304Z,28.47
2023-01-26T19:22:31.988Z,22.87
2023-01-26T19:37:34.343Z,20.77
2023-01-26T19:52:37.051Z,21.80
2023-01-26T20:07:39.617Z,22.33
2023-01-26T20:22:42.192Z,19.90
2023-01-26T20:37:44.645Z,17.53
2023-01-26T20:52:47.380Z,15.93
2023-01-26T21:07:49.969Z,16.40
2023-01-26T21:22:55.081Z,17.93
2023-01-26T21:37:58.974Z,14.07
2023-01-26T21:53:02.838Z,9.27
2023-01-26T22:08:08.333Z,7.80
2023-01-26T22:23:12.175Z,6.90
2023-01-26T22:38:15.219Z,6.73
2023-01-26T22:53:17.686Z,5.17
2023-01-26T23:08:20.115Z,6.47
2023-01-26T23:23:22.606Z,6.70
2023-01-26T23:38:27.369Z,10.47
2023-01-26T23:53:30.731Z,9.53
